Riga — LG5517 — position and weather

sailwx.info

Track history (hours):
 
Tides and Currents Weather Stations Pressure Air Temp Water Temp Dewpoint Dewpoint Depression Visibility Wind Speed Wind Dir Waves Ship Positions

Riga

Last reported at 2014-Sep-18 13:30 UTC. Time now 2014-Sep-18 13:44 UTC.
Position N 66°22' E 012°22'.

Length 13 m.

Type: Pleasure craft. MMSI: 258085340.

Date/timePositionNaut miles runAvg speedWind from/ knotsBaromVisibWave heightAir tempDewpointWater temp
2014-Sep-18 13:30N 66°22' E 012°22'0 0.0
2014-Sep-18 12:30N 66°22' E 012°22'0 0.0
2014-Sep-18 11:30N 66°22' E 012°22'0 0.0
2014-Sep-18 10:30N 66°22' E 012°22'0 0.0
2014-Sep-18 09:30N 66°22' E 012°22'0 0.0
2014-Sep-18 08:30N 66°22' E 012°22'0 0.0
2014-Sep-18 07:30N 66°22' E 012°22'0 0.0
2014-Sep-18 06:30N 66°22' E 012°22'0 0.0
2014-Sep-18 05:30N 66°22' E 012°22'0 0.0
2014-Sep-18 04:30N 66°22' E 012°22'0 0.0
2014-Sep-18 03:30N 66°22' E 012°22'0 0.0
2014-Sep-18 02:30N 66°22' E 012°22'0 0.0
2014-Sep-18 01:30N 66°22' E 012°22'0 0.0
2014-Sep-18 00:30N 66°22' E 012°22'0 0.0
2014-Sep-17 23:27N 66°22' E 012°22'0 0.0
2014-Sep-17 22:33N 66°22' E 012°22'0 0.0
2014-Sep-17 21:33N 66°22' E 012°22'0 0.0
2014-Sep-17 20:33N 66°22' E 012°22'0 0.0
2014-Sep-17 19:33N 66°22' E 012°22'0 0.0
2014-Sep-17 18:33N 66°22' E 012°22'0 0.0
2014-Sep-17 17:34N 66°22' E 012°22'0 0.0
2014-Sep-17 16:34N 66°22' E 012°22'0 0.0
2014-Sep-17 15:28N 66°22' E 012°22'0 0.0
2014-Sep-17 14:34N 66°22' E 012°22'5 0.6
2014-Sep-17 06:21N 66°24' E 012°34'5 6.3
2014-Sep-17 05:33N 66°22' E 012°22'0 0.0
2014-Sep-17 04:33N 66°22' E 012°22'0 0.0
2014-Sep-17 03:33N 66°22' E 012°22'0 0.0
2014-Sep-17 02:33N 66°22' E 012°22'0 0.0
2014-Sep-17 01:33N 66°22' E 012°22'0 0.0
2014-Sep-17 00:33N 66°22' E 012°22'0 0.0
2014-Sep-16 23:33N 66°22' E 012°22'0 0.0
2014-Sep-16 22:33N 66°22' E 012°22'0 0.0
2014-Sep-16 21:33N 66°22' E 012°22'0 0.0
2014-Sep-16 20:33N 66°22' E 012°22'0 0.0
2014-Sep-16 19:33N 66°22' E 012°22'0 0.0
2014-Sep-16 18:33N 66°22' E 012°22'0 0.0
2014-Sep-16 17:33N 66°22' E 012°22'0 0.0
2014-Sep-16 16:03N 66°22' E 012°22'0 0.0
2014-Sep-16 15:33N 66°22' E 012°22'0 0.0
2014-Sep-16 14:33N 66°22' E 012°22'0 0.0
2014-Sep-16 13:33N 66°22' E 012°22'0 0.0
2014-Sep-16 12:33N 66°22' E 012°22'0 0.0
2014-Sep-16 11:33N 66°22' E 012°22'0 0.0
2014-Sep-16 10:33N 66°22' E 012°22'0 0.0
2014-Sep-16 09:33N 66°22' E 012°22'0 0.0
2014-Sep-16 08:33N 66°22' E 012°22'0 0.0
2014-Sep-16 07:33N 66°22' E 012°22'0 0.0
2014-Sep-16 06:33N 66°22' E 012°22'0 0.0
2014-Sep-16 05:33N 66°22' E 012°22'0 0.0
2014-Sep-16 04:33N 66°22' E 012°22'0 0.0
2014-Sep-16 03:33N 66°22' E 012°22'0 0.0
2014-Sep-16 02:33N 66°22' E 012°22'0 0.0
2014-Sep-16 01:33N 66°22' E 012°22'0 0.0
2014-Sep-16 00:27N 66°22' E 012°22'0 0.0
2014-Sep-15 23:33N 66°22' E 012°22'0 0.0
2014-Sep-15 22:33N 66°22' E 012°22'0 0.0
2014-Sep-15 21:21N 66°22' E 012°22'0 0.0
2014-Sep-15 20:33N 66°22' E 012°22'0 0.0
2014-Sep-15 19:33N 66°22' E 012°22'0 0.0
2014-Sep-15 18:33N 66°22' E 012°22'0 0.0
2014-Sep-15 17:27N 66°22' E 012°22'3 3.1
2014-Sep-15 16:24N 66°25' E 012°26'3 4.0
2014-Sep-15 15:32N 66°22' E 012°23'1 0.6
2014-Sep-15 14:33N 66°22' E 012°22'0 0.0
2014-Sep-15 13:33N 66°22' E 012°22'0 0.0
2014-Sep-15 12:33N 66°22' E 012°22'0 0.0
2014-Sep-15 11:33N 66°22' E 012°22'0 0.0
2014-Sep-15 10:33N 66°22' E 012°22'0 0.0
2014-Sep-15 09:33N 66°22' E 012°22'0 0.0
2014-Sep-15 08:33N 66°22' E 012°22'0 0.0
2014-Sep-15 07:33N 66°22' E 012°22'0 0.0
2014-Sep-15 06:27N 66°22' E 012°22'0 0.0
2014-Sep-15 05:33N 66°22' E 012°22'0 0.0
2014-Sep-15 04:33N 66°22' E 012°22'0 0.0
2014-Sep-15 03:33N 66°22' E 012°22'0 0.0
2014-Sep-15 02:33N 66°22' E 012°22'0 0.0
2014-Sep-15 01:33N 66°22' E 012°22'0 0.0
2014-Sep-15 00:33N 66°22' E 012°22'0 0.0
2014-Sep-14 23:33N 66°22' E 012°22'0 0.0
2014-Sep-14 22:33N 66°22' E 012°22'0 0.0
2014-Sep-14 21:33N 66°22' E 012°22'0 0.0
2014-Sep-14 20:33N 66°22' E 012°22'0 0.0
2014-Sep-14 19:33N 66°22' E 012°22'0 0.0
2014-Sep-14 18:33N 66°22' E 012°22'0 0.0
2014-Sep-14 17:33N 66°22' E 012°22'0 0.0
2014-Sep-14 16:33N 66°22' E 012°22'0 0.0
2014-Sep-14 15:33N 66°22' E 012°22'0 0.0
2014-Sep-14 14:21N 66°22' E 012°22'0 0.0
2014-Sep-14 13:21N 66°22' E 012°22'0 0.0
2014-Sep-14 12:33N 66°22' E 012°22'0 0.0
2014-Sep-14 11:33N 66°22' E 012°22'0 0.0
2014-Sep-14 10:33N 66°22' E 012°22'0 0.0
2014-Sep-14 09:33N 66°22' E 012°22'0 0.0
2014-Sep-14 08:33N 66°22' E 012°22'0 0.0
2014-Sep-14 07:33N 66°22' E 012°22'0 0.0
2014-Sep-14 06:33N 66°22' E 012°22'0 0.0
2014-Sep-14 05:33N 66°22' E 012°22'0 0.0
2014-Sep-14 04:33N 66°22' E 012°22'0 0.0
2014-Sep-14 03:33N 66°22' E 012°22'0 0.0
2014-Sep-14 02:33N 66°22' E 012°22'0 0.0
2014-Sep-14 01:33N 66°22' E 012°22'0 0.0
2014-Sep-13 21:33N 66°22' E 012°22'0 0.0
2014-Sep-13 20:33N 66°22' E 012°22'0 0.0
2014-Sep-13 19:33N 66°22' E 012°22'0 0.0
2014-Sep-13 18:33N 66°22' E 012°22'0 0.0
2014-Sep-13 17:33N 66°22' E 012°22'0 0.0
2014-Sep-13 16:27N 66°22' E 012°22'0 0.0
2014-Sep-13 15:33N 66°22' E 012°22'0 0.0
2014-Sep-13 14:33N 66°22' E 012°22'0 0.0
2014-Sep-13 13:33N 66°22' E 012°22'0 0.0
2014-Sep-13 12:33N 66°22' E 012°22'0 0.0
2014-Sep-13 11:34N 66°22' E 012°22'0 0.0
2014-Sep-13 10:33N 66°22' E 012°22'0 0.0
2014-Sep-13 09:34N 66°22' E 012°22'0 0.0
2014-Sep-13 08:34N 66°22' E 012°22'0 0.0
2014-Sep-13 07:34N 66°22' E 012°22'0 0.0
2014-Sep-13 06:28N 66°22' E 012°22'0 0.0
2014-Sep-13 05:28N 66°22' E 012°22'0 0.0
2014-Sep-13 04:28N 66°22' E 012°22'0 0.0
2014-Sep-13 03:28N 66°22' E 012°22'0 0.0
2014-Sep-13 02:28N 66°22' E 012°22'0 0.0
2014-Sep-13 01:28N 66°22' E 012°22'0 0.0
2014-Sep-13 00:28N 66°22' E 012°22'0 0.0
2014-Sep-12 23:28N 66°22' E 012°22'0 0.0
2014-Sep-12 22:28N 66°22' E 012°22'0 0.0
2014-Sep-12 21:28N 66°22' E 012°22'0 0.0
2014-Sep-12 20:28N 66°22' E 012°22'0 0.0
2014-Sep-12 19:28N 66°22' E 012°22'0 0.0
2014-Sep-12 18:28N 66°22' E 012°22'0 0.0
2014-Sep-12 17:28N 66°22' E 012°22'0 0.0
2014-Sep-12 16:28N 66°22' E 012°22'0 0.0
2014-Sep-12 15:22N 66°22' E 012°22'0 0.0
2014-Sep-12 14:22N 66°22' E 012°22'0 0.0
2014-Sep-12 13:28N 66°22' E 012°22'0 0.0
2014-Sep-12 12:28N 66°22' E 012°22'0 0.0
2014-Sep-12 11:28N 66°22' E 012°22'0 0.0
2014-Sep-12 10:28N 66°22' E 012°22'0 0.0
2014-Sep-12 09:28N 66°22' E 012°22'0 0.0
2014-Sep-12 08:28N 66°22' E 012°22'0 0.0
2014-Sep-12 07:28N 66°22' E 012°22'0 0.0
2014-Sep-12 06:28N 66°22' E 012°22'0 0.0
2014-Sep-12 05:28N 66°22' E 012°22'0 0.0
2014-Sep-12 04:28N 66°22' E 012°22'0 0.0
2014-Sep-12 03:28N 66°22' E 012°22'0 0.0
2014-Sep-12 02:28N 66°22' E 012°22'0 0.0
2014-Sep-12 01:28N 66°22' E 012°22'0 0.0
2014-Sep-12 00:28N 66°22' E 012°22'0 0.0
2014-Sep-11 23:28N 66°22' E 012°22'0 0.0
2014-Sep-11 22:28N 66°22' E 012°22'0 0.0
2014-Sep-11 21:28N 66°22' E 012°22'0 0.0
2014-Sep-11 20:28N 66°22' E 012°22'0 0.0
2014-Sep-11 19:28N 66°22' E 012°22'0 0.0
2014-Sep-11 18:28N 66°22' E 012°22'0 0.0
2014-Sep-11 17:28N 66°22' E 012°22'0 0.0
2014-Sep-11 16:28N 66°22' E 012°22'0 0.0
2014-Sep-11 15:28N 66°22' E 012°22'0 0.0
2014-Sep-11 14:28N 66°22' E 012°22'0 0.0
2014-Sep-11 13:28N 66°22' E 012°22'0 0.0
2014-Sep-11 12:28N 66°22' E 012°22'0 0.0
2014-Sep-11 11:28N 66°22' E 012°22'0 0.0
2014-Sep-11 10:28N 66°22' E 012°22'0 0.0
2014-Sep-11 09:28N 66°22' E 012°22'0 0.0
2014-Sep-11 08:30N 66°22' E 012°22'0 0.0
2014-Sep-11 07:30N 66°22' E 012°22'0 0.0
2014-Sep-11 06:31N 66°22' E 012°22'0 0.0
2014-Sep-11 05:30N 66°22' E 012°22'0 0.0
2014-Sep-11 04:30N 66°22' E 012°22'0 0.0
2014-Sep-11 03:31N 66°22' E 012°22'0 0.0
2014-Sep-11 02:31N 66°22' E 012°22'0 0.0
2014-Sep-11 01:31N 66°22' E 012°22'0 0.0
2014-Sep-11 00:31N 66°22' E 012°22'0 0.0
2014-Sep-10 23:31N 66°22' E 012°22'0 0.0
2014-Sep-10 22:31N 66°22' E 012°22'0 0.0
2014-Sep-10 21:31N 66°22' E 012°22'0 0.0
2014-Sep-10 20:31N 66°22' E 012°22'0 0.0
2014-Sep-10 19:31N 66°22' E 012°22'0 0.0
2014-Sep-10 18:31N 66°22' E 012°22'0 0.0
2014-Sep-10 17:31N 66°22' E 012°22'0 0.0
2014-Sep-10 16:31N 66°22' E 012°22'0 0.0
2014-Sep-10 15:31N 66°22' E 012°22'0 0.0
2014-Sep-10 14:31N 66°22' E 012°22'0 0.0
2014-Sep-10 13:31N 66°22' E 012°22'0 0.0
2014-Sep-10 12:31N 66°22' E 012°22'0 0.0
2014-Sep-10 11:31N 66°22' E 012°22'0 0.0
2014-Sep-10 10:31N 66°22' E 012°22'0 0.0
2014-Sep-10 09:31N 66°22' E 012°22'0 0.0
2014-Sep-10 08:31N 66°22' E 012°22'0 0.0
2014-Sep-10 07:31N 66°22' E 012°22'0 0.0
2014-Sep-10 06:31N 66°22' E 012°22'0 0.0
2014-Sep-10 05:31N 66°22' E 012°22'0 0.0
2014-Sep-10 04:31N 66°22' E 012°22'0 0.0
2014-Sep-10 03:31N 66°22' E 012°22'0 0.0
2014-Sep-10 02:31N 66°22' E 012°22'0 0.0
2014-Sep-10 01:31N 66°22' E 012°22'0 0.0
2014-Sep-10 00:31N 66°22' E 012°22'0 0.0
2014-Sep-09 23:31N 66°22' E 012°22'0 0.0
2014-Sep-09 22:31N 66°22' E 012°22'0 0.0
2014-Sep-09 21:31N 66°22' E 012°22'0 0.0
2014-Sep-09 20:31N 66°22' E 012°22'0 0.0
2014-Sep-09 19:31N 66°22' E 012°22'0 0.0
2014-Sep-09 18:31N 66°22' E 012°22'0 0.0
2014-Sep-09 17:31N 66°22' E 012°22'0 0.0
2014-Sep-09 16:31N 66°22' E 012°22'0 0.0
2014-Sep-09 15:31N 66°22' E 012°22'0 0.0
2014-Sep-09 14:31N 66°22' E 012°22'0 0.0
2014-Sep-09 13:31N 66°22' E 012°22'0 0.0
2014-Sep-09 12:31N 66°22' E 012°22'0 0.0
2014-Sep-09 11:31N 66°22' E 012°22'0 0.0
2014-Sep-09 10:31N 66°22' E 012°22'0 0.0
2014-Sep-09 09:31N 66°22' E 012°22'0 0.0
2014-Sep-09 08:31N 66°22' E 012°22'0 0.0
2014-Sep-09 07:31N 66°22' E 012°22'0 0.0
2014-Sep-09 06:31N 66°22' E 012°22'0 0.0
2014-Sep-09 05:31N 66°22' E 012°22'0 0.0
2014-Sep-09 04:31N 66°22' E 012°22'0 0.0
2014-Sep-09 03:31N 66°22' E 012°22'0 0.0
2014-Sep-09 02:25N 66°22' E 012°22'0 0.0
2014-Sep-09 01:31N 66°22' E 012°22'0 0.0
2014-Sep-09 00:25N 66°22' E 012°22'0 0.0
2014-Sep-08 23:31N 66°22' E 012°22'0 0.0
2014-Sep-08 22:31N 66°22' E 012°22'0 0.0
2014-Sep-08 21:31N 66°22' E 012°22'0 0.0
2014-Sep-08 20:31N 66°22' E 012°22'0 0.0
2014-Sep-08 19:31N 66°22' E 012°22'0 0.0
2014-Sep-08 18:31N 66°22' E 012°22'0 0.0
2014-Sep-08 17:31N 66°22' E 012°22'0 0.0
2014-Sep-08 16:19N 66°22' E 012°22'0 0.0
2014-Sep-08 15:31N 66°22' E 012°22'0 0.0
2014-Sep-08 14:31N 66°22' E 012°22'  
Track history (hours):
 
Tides and Currents Weather Stations Pressure Air Temp Water Temp Dewpoint Dewpoint Depression Visibility Wind Speed Wind Dir Waves Ship Positions

Riga

Last reported at 2014-Sep-18 13:30 UTC. Time now 2014-Sep-18 13:44 UTC.
Position N 66°22' E 012°22'.

Length 13 m.

Type: Pleasure craft. MMSI: 258085340.

Date/timePositionNaut miles runAvg speedWind from/ knotsBaromVisibWave heightAir tempDewpointWater temp
2014-Sep-18 13:30N 66°22' E 012°22'0 0.0
2014-Sep-18 12:30N 66°22' E 012°22'0 0.0
2014-Sep-18 11:30N 66°22' E 012°22'0 0.0
2014-Sep-18 10:30N 66°22' E 012°22'0 0.0
2014-Sep-18 09:30N 66°22' E 012°22'0 0.0
2014-Sep-18 08:30N 66°22' E 012°22'0 0.0
2014-Sep-18 07:30N 66°22' E 012°22'0 0.0
2014-Sep-18 06:30N 66°22' E 012°22'0 0.0
2014-Sep-18 05:30N 66°22' E 012°22'0 0.0
2014-Sep-18 04:30N 66°22' E 012°22'0 0.0
2014-Sep-18 03:30N 66°22' E 012°22'0 0.0
2014-Sep-18 02:30N 66°22' E 012°22'0 0.0
2014-Sep-18 01:30N 66°22' E 012°22'0 0.0
2014-Sep-18 00:30N 66°22' E 012°22'0 0.0
2014-Sep-17 23:27N 66°22' E 012°22'0 0.0
2014-Sep-17 22:33N 66°22' E 012°22'0 0.0
2014-Sep-17 21:33N 66°22' E 012°22'0 0.0
2014-Sep-17 20:33N 66°22' E 012°22'0 0.0
2014-Sep-17 19:33N 66°22' E 012°22'0 0.0
2014-Sep-17 18:33N 66°22' E 012°22'0 0.0
2014-Sep-17 17:34N 66°22' E 012°22'0 0.0
2014-Sep-17 16:34N 66°22' E 012°22'0 0.0
2014-Sep-17 15:28N 66°22' E 012°22'0 0.0
2014-Sep-17 14:34N 66°22' E 012°22'5 0.6
2014-Sep-17 06:21N 66°24' E 012°34'5 6.3
2014-Sep-17 05:33N 66°22' E 012°22'0 0.0
2014-Sep-17 04:33N 66°22' E 012°22'0 0.0
2014-Sep-17 03:33N 66°22' E 012°22'0 0.0
2014-Sep-17 02:33N 66°22' E 012°22'0 0.0
2014-Sep-17 01:33N 66°22' E 012°22'0 0.0
2014-Sep-17 00:33N 66°22' E 012°22'0 0.0
2014-Sep-16 23:33N 66°22' E 012°22'0 0.0
2014-Sep-16 22:33N 66°22' E 012°22'0 0.0
2014-Sep-16 21:33N 66°22' E 012°22'0 0.0
2014-Sep-16 20:33N 66°22' E 012°22'0 0.0
2014-Sep-16 19:33N 66°22' E 012°22'0 0.0
2014-Sep-16 18:33N 66°22' E 012°22'0 0.0
2014-Sep-16 17:33N 66°22' E 012°22'0 0.0
2014-Sep-16 16:03N 66°22' E 012°22'0 0.0
2014-Sep-16 15:33N 66°22' E 012°22'0 0.0
2014-Sep-16 14:33N 66°22' E 012°22'0 0.0
2014-Sep-16 13:33N 66°22' E 012°22'0 0.0
2014-Sep-16 12:33N 66°22' E 012°22'0 0.0
2014-Sep-16 11:33N 66°22' E 012°22'0 0.0
2014-Sep-16 10:33N 66°22' E 012°22'0 0.0
2014-Sep-16 09:33N 66°22' E 012°22'0 0.0
2014-Sep-16 08:33N 66°22' E 012°22'0 0.0
2014-Sep-16 07:33N 66°22' E 012°22'0 0.0
2014-Sep-16 06:33N 66°22' E 012°22'0 0.0
2014-Sep-16 05:33N 66°22' E 012°22'0 0.0
2014-Sep-16 04:33N 66°22' E 012°22'0 0.0
2014-Sep-16 03:33N 66°22' E 012°22'0 0.0
2014-Sep-16 02:33N 66°22' E 012°22'0 0.0
2014-Sep-16 01:33N 66°22' E 012°22'0 0.0
2014-Sep-16 00:27N 66°22' E 012°22'0 0.0
2014-Sep-15 23:33N 66°22' E 012°22'0 0.0
2014-Sep-15 22:33N 66°22' E 012°22'0 0.0
2014-Sep-15 21:21N 66°22' E 012°22'0 0.0
2014-Sep-15 20:33N 66°22' E 012°22'0 0.0
2014-Sep-15 19:33N 66°22' E 012°22'0 0.0
2014-Sep-15 18:33N 66°22' E 012°22'0 0.0
2014-Sep-15 17:27N 66°22' E 012°22'3 3.1
2014-Sep-15 16:24N 66°25' E 012°26'3 4.0
2014-Sep-15 15:32N 66°22' E 012°23'1 0.6
2014-Sep-15 14:33N 66°22' E 012°22'0 0.0
2014-Sep-15 13:33N 66°22' E 012°22'0 0.0
2014-Sep-15 12:33N 66°22' E 012°22'0 0.0
2014-Sep-15 11:33N 66°22' E 012°22'0 0.0
2014-Sep-15 10:33N 66°22' E 012°22'0 0.0
2014-Sep-15 09:33N 66°22' E 012°22'0 0.0
2014-Sep-15 08:33N 66°22' E 012°22'0 0.0
2014-Sep-15 07:33N 66°22' E 012°22'0 0.0
2014-Sep-15 06:27N 66°22' E 012°22'0 0.0
2014-Sep-15 05:33N 66°22' E 012°22'0 0.0
2014-Sep-15 04:33N 66°22' E 012°22'0 0.0
2014-Sep-15 03:33N 66°22' E 012°22'0 0.0
2014-Sep-15 02:33N 66°22' E 012°22'0 0.0
2014-Sep-15 01:33N 66°22' E 012°22'0 0.0
2014-Sep-15 00:33N 66°22' E 012°22'0 0.0
2014-Sep-14 23:33N 66°22' E 012°22'0 0.0
2014-Sep-14 22:33N 66°22' E 012°22'0 0.0
2014-Sep-14 21:33N 66°22' E 012°22'0 0.0
2014-Sep-14 20:33N 66°22' E 012°22'0 0.0
2014-Sep-14 19:33N 66°22' E 012°22'0 0.0
2014-Sep-14 18:33N 66°22' E 012°22'0 0.0
2014-Sep-14 17:33N 66°22' E 012°22'0 0.0
2014-Sep-14 16:33N 66°22' E 012°22'0 0.0
2014-Sep-14 15:33N 66°22' E 012°22'0 0.0
2014-Sep-14 14:21N 66°22' E 012°22'0 0.0
2014-Sep-14 13:21N 66°22' E 012°22'0 0.0
2014-Sep-14 12:33N 66°22' E 012°22'0 0.0
2014-Sep-14 11:33N 66°22' E 012°22'0 0.0
2014-Sep-14 10:33N 66°22' E 012°22'0 0.0
2014-Sep-14 09:33N 66°22' E 012°22'0 0.0
2014-Sep-14 08:33N 66°22' E 012°22'0 0.0
2014-Sep-14 07:33N 66°22' E 012°22'0 0.0
2014-Sep-14 06:33N 66°22' E 012°22'0 0.0
2014-Sep-14 05:33N 66°22' E 012°22'0 0.0
2014-Sep-14 04:33N 66°22' E 012°22'0 0.0
2014-Sep-14 03:33N 66°22' E 012°22'0 0.0
2014-Sep-14 02:33N 66°22' E 012°22'0 0.0
2014-Sep-14 01:33N 66°22' E 012°22'0 0.0
2014-Sep-13 21:33N 66°22' E 012°22'0 0.0
2014-Sep-13 20:33N 66°22' E 012°22'0 0.0
2014-Sep-13 19:33N 66°22' E 012°22'0 0.0
2014-Sep-13 18:33N 66°22' E 012°22'0 0.0
2014-Sep-13 17:33N 66°22' E 012°22'0 0.0
2014-Sep-13 16:27N 66°22' E 012°22'0 0.0
2014-Sep-13 15:33N 66°22' E 012°22'0 0.0
2014-Sep-13 14:33N 66°22' E 012°22'0 0.0
2014-Sep-13 13:33N 66°22' E 012°22'0 0.0
2014-Sep-13 12:33N 66°22' E 012°22'0 0.0
2014-Sep-13 11:34N 66°22' E 012°22'0 0.0
2014-Sep-13 10:33N 66°22' E 012°22'0 0.0
2014-Sep-13 09:34N 66°22' E 012°22'0 0.0
2014-Sep-13 08:34N 66°22' E 012°22'0 0.0
2014-Sep-13 07:34N 66°22' E 012°22'0 0.0
2014-Sep-13 06:28N 66°22' E 012°22'0 0.0
2014-Sep-13 05:28N 66°22' E 012°22'0 0.0
2014-Sep-13 04:28N 66°22' E 012°22'0 0.0
2014-Sep-13 03:28N 66°22' E 012°22'0 0.0
2014-Sep-13 02:28N 66°22' E 012°22'0 0.0
2014-Sep-13 01:28N 66°22' E 012°22'0 0.0
2014-Sep-13 00:28N 66°22' E 012°22'0 0.0
2014-Sep-12 23:28N 66°22' E 012°22'0 0.0
2014-Sep-12 22:28N 66°22' E 012°22'0 0.0
2014-Sep-12 21:28N 66°22' E 012°22'0 0.0
2014-Sep-12 20:28N 66°22' E 012°22'0 0.0
2014-Sep-12 19:28N 66°22' E 012°22'0 0.0
2014-Sep-12 18:28N 66°22' E 012°22'0 0.0
2014-Sep-12 17:28N 66°22' E 012°22'0 0.0
2014-Sep-12 16:28N 66°22' E 012°22'0 0.0
2014-Sep-12 15:22N 66°22' E 012°22'0 0.0
2014-Sep-12 14:22N 66°22' E 012°22'0 0.0
2014-Sep-12 13:28N 66°22' E 012°22'0 0.0
2014-Sep-12 12:28N 66°22' E 012°22'0 0.0
2014-Sep-12 11:28N 66°22' E 012°22'0 0.0
2014-Sep-12 10:28N 66°22' E 012°22'0 0.0
2014-Sep-12 09:28N 66°22' E 012°22'0 0.0
2014-Sep-12 08:28N 66°22' E 012°22'0 0.0
2014-Sep-12 07:28N 66°22' E 012°22'0 0.0
2014-Sep-12 06:28N 66°22' E 012°22'0 0.0
2014-Sep-12 05:28N 66°22' E 012°22'0 0.0
2014-Sep-12 04:28N 66°22' E 012°22'0 0.0
2014-Sep-12 03:28N 66°22' E 012°22'0 0.0
2014-Sep-12 02:28N 66°22' E 012°22'0 0.0
2014-Sep-12 01:28N 66°22' E 012°22'0 0.0
2014-Sep-12 00:28N 66°22' E 012°22'0 0.0
2014-Sep-11 23:28N 66°22' E 012°22'0 0.0
2014-Sep-11 22:28N 66°22' E 012°22'0 0.0
2014-Sep-11 21:28N 66°22' E 012°22'0 0.0
2014-Sep-11 20:28N 66°22' E 012°22'0 0.0
2014-Sep-11 19:28N 66°22' E 012°22'0 0.0
2014-Sep-11 18:28N 66°22' E 012°22'0 0.0
2014-Sep-11 17:28N 66°22' E 012°22'0 0.0
2014-Sep-11 16:28N 66°22' E 012°22'0 0.0
2014-Sep-11 15:28N 66°22' E 012°22'0 0.0
2014-Sep-11 14:28N 66°22' E 012°22'0 0.0
2014-Sep-11 13:28N 66°22' E 012°22'0 0.0
2014-Sep-11 12:28N 66°22' E 012°22'0 0.0
2014-Sep-11 11:28N 66°22' E 012°22'0 0.0
2014-Sep-11 10:28N 66°22' E 012°22'0 0.0
2014-Sep-11 09:28N 66°22' E 012°22'0 0.0
2014-Sep-11 08:30N 66°22' E 012°22'0 0.0
2014-Sep-11 07:30N 66°22' E 012°22'0 0.0
2014-Sep-11 06:31N 66°22' E 012°22'0 0.0
2014-Sep-11 05:30N 66°22' E 012°22'0 0.0
2014-Sep-11 04:30N 66°22' E 012°22'0 0.0
2014-Sep-11 03:31N 66°22' E 012°22'0 0.0
2014-Sep-11 02:31N 66°22' E 012°22'0 0.0
2014-Sep-11 01:31N 66°22' E 012°22'0 0.0
2014-Sep-11 00:31N 66°22' E 012°22'0 0.0
2014-Sep-10 23:31N 66°22' E 012°22'0 0.0
2014-Sep-10 22:31N 66°22' E 012°22'0 0.0
2014-Sep-10 21:31N 66°22' E 012°22'0 0.0
2014-Sep-10 20:31N 66°22' E 012°22'0 0.0
2014-Sep-10 19:31N 66°22' E 012°22'0 0.0
2014-Sep-10 18:31N 66°22' E 012°22'0 0.0
2014-Sep-10 17:31N 66°22' E 012°22'0 0.0
2014-Sep-10 16:31N 66°22' E 012°22'0 0.0
2014-Sep-10 15:31N 66°22' E 012°22'0 0.0
2014-Sep-10 14:31N 66°22' E 012°22'0 0.0
2014-Sep-10 13:31N 66°22' E 012°22'0 0.0
2014-Sep-10 12:31N 66°22' E 012°22'0 0.0
2014-Sep-10 11:31N 66°22' E 012°22'0 0.0
2014-Sep-10 10:31N 66°22' E 012°22'0 0.0
2014-Sep-10 09:31N 66°22' E 012°22'0 0.0
2014-Sep-10 08:31N 66°22' E 012°22'0 0.0
2014-Sep-10 07:31N 66°22' E 012°22'0 0.0
2014-Sep-10 06:31N 66°22' E 012°22'0 0.0
2014-Sep-10 05:31N 66°22' E 012°22'0 0.0
2014-Sep-10 04:31N 66°22' E 012°22'0 0.0
2014-Sep-10 03:31N 66°22' E 012°22'0 0.0
2014-Sep-10 02:31N 66°22' E 012°22'0 0.0
2014-Sep-10 01:31N 66°22' E 012°22'0 0.0
2014-Sep-10 00:31N 66°22' E 012°22'0 0.0
2014-Sep-09 23:31N 66°22' E 012°22'0 0.0
2014-Sep-09 22:31N 66°22' E 012°22'0 0.0
2014-Sep-09 21:31N 66°22' E 012°22'0 0.0
2014-Sep-09 20:31N 66°22' E 012°22'0 0.0
2014-Sep-09 19:31N 66°22' E 012°22'0 0.0
2014-Sep-09 18:31N 66°22' E 012°22'0 0.0
2014-Sep-09 17:31N 66°22' E 012°22'0 0.0
2014-Sep-09 16:31N 66°22' E 012°22'0 0.0
2014-Sep-09 15:31N 66°22' E 012°22'0 0.0
2014-Sep-09 14:31N 66°22' E 012°22'0 0.0
2014-Sep-09 13:31N 66°22' E 012°22'0 0.0
2014-Sep-09 12:31N 66°22' E 012°22'0 0.0
2014-Sep-09 11:31N 66°22' E 012°22'0 0.0
2014-Sep-09 10:31N 66°22' E 012°22'0 0.0
2014-Sep-09 09:31N 66°22' E 012°22'0 0.0
2014-Sep-09 08:31N 66°22' E 012°22'0 0.0
2014-Sep-09 07:31N 66°22' E 012°22'0 0.0
2014-Sep-09 06:31N 66°22' E 012°22'0 0.0
2014-Sep-09 05:31N 66°22' E 012°22'0 0.0
2014-Sep-09 04:31N 66°22' E 012°22'0 0.0
2014-Sep-09 03:31N 66°22' E 012°22'0 0.0
2014-Sep-09 02:25N 66°22' E 012°22'0 0.0
2014-Sep-09 01:31N 66°22' E 012°22'0 0.0
2014-Sep-09 00:25N 66°22' E 012°22'0 0.0
2014-Sep-08 23:31N 66°22' E 012°22'0 0.0
2014-Sep-08 22:31N 66°22' E 012°22'0 0.0
2014-Sep-08 21:31N 66°22' E 012°22'0 0.0
2014-Sep-08 20:31N 66°22' E 012°22'0 0.0
2014-Sep-08 19:31N 66°22' E 012°22'0 0.0
2014-Sep-08 18:31N 66°22' E 012°22'0 0.0
2014-Sep-08 17:31N 66°22' E 012°22'0 0.0
2014-Sep-08 16:19N 66°22' E 012°22'0 0.0
2014-Sep-08 15:31N 66°22' E 012°22'0 0.0
2014-Sep-08 14:31N 66°22' E 012°22'  

Dump ship's entire track history